sensor_id;sensor_type;location;lat;lon;timestamp;temperature;humidity
16154;DHT22;8182;55.648;13.208;2022-07-23T00:00:30;16.90;99.90
16154;DHT22;8182;55.648;13.208;2022-07-23T00:02:58;16.90;99.90
16154;DHT22;8182;55.648;13.208;2022-07-23T00:05:26;16.80;99.90
16154;DHT22;8182;55.648;13.208;2022-07-23T00:07:54;16.80;99.90
16154;DHT22;8182;55.648;13.208;2022-07-23T00:10:25;16.70;99.90
16154;DHT22;8182;55.648;13.208;2022-07-23T00:12:53;16.70;99.90
16154;DHT22;8182;55.648;13.208;2022-07-23T00:15:20;16.60;99.90
16154;DHT22;8182;55.648;13.208;2022-07-23T00:17:47;16.50;99.90
16154;DHT22;8182;55.648;13.208;2022-07-23T00:20:15;16.60;99.90
16154;DHT22;8182;55.648;13.208;2022-07-23T00:22:46;16.60;99.90
16154;DHT22;8182;55.648;13.208;2022-07-23T00:25:14;16.70;99.90
16154;DHT22;8182;55.648;13.208;2022-07-23T00:27:43;16.60;99.90
16154;DHT22;8182;55.648;13.208;2022-07-23T00:30:11;16.60;99.90
16154;DHT22;8182;55.648;13.208;2022-07-23T00:32:46;16.70;99.90
16154;DHT22;8182;55.648;13.208;2022-07-23T00:35:14;16.60;99.90
16154;DHT22;8182;55.648;13.208;2022-07-23T00:37:42;16.50;99.90
16154;DHT22;8182;55.648;13.208;2022-07-23T00:40:11;16.50;99.90
16154;DHT22;8182;55.648;13.208;2022-07-23T00:42:38;16.50;99.90
16154;DHT22;8182;55.648;13.208;2022-07-23T00:45:07;16.50;99.90
16154;DHT22;8182;55.648;13.208;2022-07-23T00:47:35;16.50;99.90
16154;DHT22;8182;55.648;13.208;2022-07-23T00:50:04;16.50;99.90
16154;DHT22;8182;55.648;13.208;2022-07-23T00:52:32;16.40;99.90
16154;DHT22;8182;55.648;13.208;2022-07-23T00:55:00;16.50;99.90
16154;DHT22;8182;55.648;13.208;2022-07-23T00:57:28;16.40;99.90
16154;DHT22;8182;55.648;13.208;2022-07-23T00:59:55;16.40;99.90
16154;DHT22;8182;55.648;13.208;2022-07-23T01:02:25;16.40;99.90
16154;DHT22;8182;55.648;13.208;2022-07-23T01:04:52;16.40;99.90
16154;DHT22;8182;55.648;13.208;2022-07-23T01:07:20;16.40;99.90
16154;DHT22;8182;55.648;13.208;2022-07-23T01:09:49;16.40;99.90
16154;DHT22;8182;55.648;13.208;2022-07-23T01:12:16;16.40;99.90
16154;DHT22;8182;55.648;13.208;2022-07-23T01:14:43;16.40;99.90
16154;DHT22;8182;55.648;13.208;2022-07-23T01:17:10;16.40;99.90
16154;DHT22;8182;55.648;13.208;2022-07-23T01:19:39;16.40;99.90
16154;DHT22;8182;55.648;13.208;2022-07-23T01:22:06;16.50;99.90
16154;DHT22;8182;55.648;13.208;2022-07-23T01:24:35;16.50;99.90
16154;DHT22;8182;55.648;13.208;2022-07-23T01:27:03;16.40;99.90
16154;DHT22;8182;55.648;13.208;2022-07-23T01:29:31;16.30;99.90
16154;DHT22;8182;55.648;13.208;2022-07-23T01:31:58;16.40;99.90
16154;DHT22;8182;55.648;13.208;2022-07-23T01:34:25;16.30;99.90
16154;DHT22;8182;55.648;13.208;2022-07-23T01:36:56;16.30;99.90
16154;DHT22;8182;55.648;13.208;2022-07-23T01:39:23;16.40;99.90
16154;DHT22;8182;55.648;13.208;2022-07-23T01:41:52;16.40;99.90
16154;DHT22;8182;55.648;13.208;2022-07-23T01:44:19;16.40;99.90
16154;DHT22;8182;55.648;13.208;2022-07-23T01:46:46;16.40;99.90
16154;DHT22;8182;55.648;13.208;2022-07-23T01:49:15;16.30;99.90
16154;DHT22;8182;55.648;13.208;2022-07-23T01:51:42;16.40;99.90
16154;DHT22;8182;55.648;13.208;2022-07-23T01:54:23;16.40;99.90
16154;DHT22;8182;55.648;13.208;2022-07-23T01:56:52;16.40;99.90
16154;DHT22;8182;55.648;13.208;2022-07-23T01:59:19;16.30;99.90
16154;DHT22;8182;55.648;13.208;2022-07-23T02:01:46;16.30;99.90
16154;DHT22;8182;55.648;13.208;2022-07-23T02:04:14;16.20;99.90
16154;DHT22;8182;55.648;13.208;2022-07-23T02:06:51;16.30;99.90
16154;DHT22;8182;55.648;13.208;2022-07-23T02:09:21;16.20;99.90
16154;DHT22;8182;55.648;13.208;2022-07-23T02:11:48;16.30;99.90
16154;DHT22;8182;55.648;13.208;2022-07-23T02:14:17;16.30;99.90
16154;DHT22;8182;55.648;13.208;2022-07-23T02:16:47;16.20;99.90
16154;DHT22;8182;55.648;13.208;2022-07-23T02:19:14;16.30;99.90
16154;DHT22;8182;55.648;13.208;2022-07-23T02:21:41;16.30;99.90
16154;DHT22;8182;55.648;13.208;2022-07-23T02:24:09;16.20;99.90
16154;DHT22;8182;55.648;13.208;2022-07-23T02:26:36;16.20;99.90
16154;DHT22;8182;55.648;13.208;2022-07-23T02:29:04;16.10;99.90
16154;DHT22;8182;55.648;13.208;2022-07-23T02:31:33;16.10;99.90
16154;DHT22;8182;55.648;13.208;2022-07-23T02:34:03;16.10;99.90
16154;DHT22;8182;55.648;13.208;2022-07-23T02:36:31;16.00;99.90
16154;DHT22;8182;55.648;13.208;2022-07-23T02:38:58;16.10;99.90
16154;DHT22;8182;55.648;13.208;2022-07-23T02:41:25;16.00;99.90
16154;DHT22;8182;55.648;13.208;2022-07-23T02:43:52;16.00;99.90
16154;DHT22;8182;55.648;13.208;2022-07-23T02:46:19;15.90;99.90
16154;DHT22;8182;55.648;13.208;2022-07-23T02:48:47;16.00;99.90
16154;DHT22;8182;55.648;13.208;2022-07-23T02:51:15;16.00;99.90
16154;DHT22;8182;55.648;13.208;2022-07-23T02:53:42;15.90;99.90
16154;DHT22;8182;55.648;13.208;2022-07-23T02:56:10;15.90;99.90
16154;DHT22;8182;55.648;13.208;2022-07-23T02:58:37;15.90;99.90
16154;DHT22;8182;55.648;13.208;2022-07-23T03:01:04;15.90;99.90
16154;DHT22;8182;55.648;13.208;2022-07-23T03:03:32;15.80;99.90
16154;DHT22;8182;55.648;13.208;2022-07-23T03:06:00;15.80;99.90
16154;DHT22;8182;55.648;13.208;2022-07-23T03:08:28;15.90;99.90
16154;DHT22;8182;55.648;13.208;2022-07-23T03:10:56;15.70;99.90
16154;DHT22;8182;55.648;13.208;2022-07-23T03:13:23;15.70;99.90
16154;DHT22;8182;55.648;13.208;2022-07-23T03:15:52;15.80;99.90
16154;DHT22;8182;55.648;13.208;2022-07-23T03:18:19;15.80;99.90
16154;DHT22;8182;55.648;13.208;2022-07-23T03:20:46;15.80;99.90
16154;DHT22;8182;55.648;13.208;2022-07-23T03:23:16;15.80;99.90
16154;DHT22;8182;55.648;13.208;2022-07-23T03:25:43;15.90;99.90
16154;DHT22;8182;55.648;13.208;2022-07-23T03:28:13;15.70;99.90
16154;DHT22;8182;55.648;13.208;2022-07-23T03:30:42;15.50;99.90
16154;DHT22;8182;55.648;13.208;2022-07-23T03:33:10;15.40;99.90
16154;DHT22;8182;55.648;13.208;2022-07-23T03:35:39;15.40;99.90
16154;DHT22;8182;55.648;13.208;2022-07-23T03:38:10;15.60;99.90
16154;DHT22;8182;55.648;13.208;2022-07-23T03:40:39;15.60;99.90
16154;DHT22;8182;55.648;13.208;2022-07-23T03:43:07;15.40;99.90
16154;DHT22;8182;55.648;13.208;2022-07-23T03:45:35;15.50;99.90
16154;DHT22;8182;55.648;13.208;2022-07-23T03:48:03;15.40;99.90
16154;DHT22;8182;55.648;13.208;2022-07-23T03:50:30;15.30;99.90
16154;DHT22;8182;55.648;13.208;2022-07-23T03:52:57;15.10;99.90
16154;DHT22;8182;55.648;13.208;2022-07-23T03:55:25;15.20;99.90
16154;DHT22;8182;55.648;13.208;2022-07-23T03:57:53;15.40;99.90
16154;DHT22;8182;55.648;13.208;2022-07-23T04:00:20;15.50;99.90
16154;DHT22;8182;55.648;13.208;2022-07-23T04:02:47;15.40;99.90
16154;DHT22;8182;55.648;13.208;2022-07-23T04:05:15;15.30;99.90
16154;DHT22;8182;55.648;13.208;2022-07-23T04:07:42;15.10;99.90
16154;DHT22;8182;55.648;13.208;2022-07-23T04:10:10;15.00;99.90
16154;DHT22;8182;55.648;13.208;2022-07-23T04:12:37;15.20;99.90
16154;DHT22;8182;55.648;13.208;2022-07-23T04:15:07;15.20;99.90
16154;DHT22;8182;55.648;13.208;2022-07-23T04:17:34;15.20;99.90
16154;DHT22;8182;55.648;13.208;2022-07-23T04:20:02;15.10;99.90
16154;DHT22;8182;55.648;13.208;2022-07-23T04:22:29;15.10;99.90
16154;DHT22;8182;55.648;13.208;2022-07-23T04:24:57;15.00;99.90
16154;DHT22;8182;55.648;13.208;2022-07-23T04:27:25;15.00;99.90
16154;DHT22;8182;55.648;13.208;2022-07-23T04:29:52;15.00;99.90
16154;DHT22;8182;55.648;13.208;2022-07-23T04:32:20;15.00;99.90
16154;DHT22;8182;55.648;13.208;2022-07-23T04:34:47;15.10;99.90
16154;DHT22;8182;55.648;13.208;2022-07-23T04:37:14;15.20;99.90
16154;DHT22;8182;55.648;13.208;2022-07-23T04:39:41;15.20;99.90
16154;DHT22;8182;55.648;13.208;2022-07-23T04:42:08;15.30;99.90
16154;DHT22;8182;55.648;13.208;2022-07-23T04:44:35;15.30;99.90
16154;DHT22;8182;55.648;13.208;2022-07-23T04:47:02;15.20;99.90
16154;DHT22;8182;55.648;13.208;2022-07-23T04:49:31;15.20;99.90
16154;DHT22;8182;55.648;13.208;2022-07-23T04:51:58;15.30;99.90
16154;DHT22;8182;55.648;13.208;2022-07-23T04:54:25;15.40;99.90
16154;DHT22;8182;55.648;13.208;2022-07-23T04:56:52;15.50;99.90
16154;DHT22;8182;55.648;13.208;2022-07-23T04:59:19;15.50;99.90
16154;DHT22;8182;55.648;13.208;2022-07-23T05:01:46;15.60;99.90
16154;DHT22;8182;55.648;13.208;2022-07-23T05:04:14;15.60;99.90
16154;DHT22;8182;55.648;13.208;2022-07-23T05:06:43;15.60;99.90
16154;DHT22;8182;55.648;13.208;2022-07-23T05:09:10;15.40;99.90
16154;DHT22;8182;55.648;13.208;2022-07-23T05:11:37;15.20;99.90
16154;DHT22;8182;55.648;13.208;2022-07-23T05:14:05;15.30;99.90
16154;DHT22;8182;55.648;13.208;2022-07-23T05:16:32;15.30;99.90
16154;DHT22;8182;55.648;13.208;2022-07-23T05:19:00;15.30;99.90
16154;DHT22;8182;55.648;13.208;2022-07-23T05:21:27;15.30;99.90
16154;DHT22;8182;55.648;13.208;2022-07-23T05:23:55;15.20;99.90
16154;DHT22;8182;55.648;13.208;2022-07-23T05:26:22;15.20;99.90
16154;DHT22;8182;55.648;13.208;2022-07-23T05:28:50;15.20;99.90
16154;DHT22;8182;55.648;13.208;2022-07-23T05:31:20;15.30;99.90
16154;DHT22;8182;55.648;13.208;2022-07-23T05:33:47;15.40;99.90
16154;DHT22;8182;55.648;13.208;2022-07-23T05:36:14;15.50;99.90
16154;DHT22;8182;55.648;13.208;2022-07-23T05:38:41;15.50;99.90
16154;DHT22;8182;55.648;13.208;2022-07-23T05:41:09;15.60;99.90
16154;DHT22;8182;55.648;13.208;2022-07-23T05:43:36;15.80;99.90
16154;DHT22;8182;55.648;13.208;2022-07-23T05:46:03;15.90;99.90
16154;DHT22;8182;55.648;13.208;2022-07-23T05:48:32;16.00;99.90
16154;DHT22;8182;55.648;13.208;2022-07-23T05:50:59;16.00;99.90
16154;DHT22;8182;55.648;13.208;2022-07-23T05:53:28;16.00;99.90
16154;DHT22;8182;55.648;13.208;2022-07-23T05:55:55;16.00;99.90
16154;DHT22;8182;55.648;13.208;2022-07-23T05:58:24;16.00;99.90
16154;DHT22;8182;55.648;13.208;2022-07-23T06:00:51;16.00;99.90
16154;DHT22;8182;55.648;13.208;2022-07-23T06:03:18;15.90;99.90
16154;DHT22;8182;55.648;13.208;2022-07-23T06:05:45;15.80;99.90
16154;DHT22;8182;55.648;13.208;2022-07-23T06:08:14;15.80;99.90
16154;DHT22;8182;55.648;13.208;2022-07-23T06:10:41;15.80;99.90
16154;DHT22;8182;55.648;13.208;2022-07-23T06:13:08;15.70;99.90
16154;DHT22;8182;55.648;13.208;2022-07-23T06:15:37;15.70;99.90
16154;DHT22;8182;55.648;13.208;2022-07-23T06:18:04;15.70;99.90
16154;DHT22;8182;55.648;13.208;2022-07-23T06:20:31;15.60;99.90
16154;DHT22;8182;55.648;13.208;2022-07-23T06:22:59;15.80;99.90
16154;DHT22;8182;55.648;13.208;2022-07-23T06:25:30;15.50;99.90
16154;DHT22;8182;55.648;13.208;2022-07-23T06:27:57;15.50;99.90
16154;DHT22;8182;55.648;13.208;2022-07-23T06:30:26;15.50;99.90
16154;DHT22;8182;55.648;13.208;2022-07-23T06:32:55;15.60;99.90
16154;DHT22;8182;55.648;13.208;2022-07-23T06:35:22;15.50;99.90
16154;DHT22;8182;55.648;13.208;2022-07-23T06:37:49;15.70;99.90
16154;DHT22;8182;55.648;13.208;2022-07-23T06:40:16;15.70;99.90
16154;DHT22;8182;55.648;13.208;2022-07-23T06:42:44;15.70;99.90
16154;DHT22;8182;55.648;13.208;2022-07-23T06:45:11;15.70;99.90
16154;DHT22;8182;55.648;13.208;2022-07-23T06:47:38;15.80;99.90
16154;DHT22;8182;55.648;13.208;2022-07-23T06:50:09;15.90;99.90
16154;DHT22;8182;55.648;13.208;2022-07-23T06:52:36;15.90;99.90
16154;DHT22;8182;55.648;13.208;2022-07-23T06:55:06;16.10;99.90
16154;DHT22;8182;55.648;13.208;2022-07-23T06:57:34;16.40;99.90
16154;DHT22;8182;55.648;13.208;2022-07-23T07:00:01;16.50;99.90
16154;DHT22;8182;55.648;13.208;2022-07-23T07:02:28;16.50;99.90
16154;DHT22;8182;55.648;13.208;2022-07-23T07:04:55;16.70;99.90
16154;DHT22;8182;55.648;13.208;2022-07-23T07:07:23;16.60;99.90
16154;DHT22;8182;55.648;13.208;2022-07-23T07:09:50;16.70;99.90
16154;DHT22;8182;55.648;13.208;2022-07-23T07:12:18;16.80;99.90
16154;DHT22;8182;55.648;13.208;2022-07-23T07:14:45;16.80;99.90
16154;DHT22;8182;55.648;13.208;2022-07-23T07:17:12;16.70;99.90
16154;DHT22;8182;55.648;13.208;2022-07-23T07:19:41;16.70;99.90
16154;DHT22;8182;55.648;13.208;2022-07-23T07:22:08;16.70;99.90
16154;DHT22;8182;55.648;13.208;2022-07-23T07:24:36;16.70;99.90
16154;DHT22;8182;55.648;13.208;2022-07-23T07:27:03;16.60;99.90
16154;DHT22;8182;55.648;13.208;2022-07-23T07:29:31;16.40;99.90
16154;DHT22;8182;55.648;13.208;2022-07-23T07:31:58;16.50;99.90
16154;DHT22;8182;55.648;13.208;2022-07-23T07:34:26;16.50;99.90
16154;DHT22;8182;55.648;13.208;2022-07-23T07:36:53;16.40;99.90
16154;DHT22;8182;55.648;13.208;2022-07-23T07:39:20;16.60;99.90
16154;DHT22;8182;55.648;13.208;2022-07-23T07:41:49;16.70;99.90
16154;DHT22;8182;55.648;13.208;2022-07-23T07:44:16;16.70;99.90
16154;DHT22;8182;55.648;13.208;2022-07-23T07:46:43;16.60;99.90
16154;DHT22;8182;55.648;13.208;2022-07-23T07:49:10;16.60;99.90
16154;DHT22;8182;55.648;13.208;2022-07-23T07:51:47;16.60;99.90
16154;DHT22;8182;55.648;13.208;2022-07-23T07:54:13;16.70;99.90
16154;DHT22;8182;55.648;13.208;2022-07-23T07:56:40;16.70;99.90
16154;DHT22;8182;55.648;13.208;2022-07-23T07:59:09;16.70;99.90
16154;DHT22;8182;55.648;13.208;2022-07-23T08:01:37;16.70;99.90
16154;DHT22;8182;55.648;13.208;2022-07-23T08:04:04;16.70;99.90
16154;DHT22;8182;55.648;13.208;2022-07-23T08:06:31;16.90;99.90
16154;DHT22;8182;55.648;13.208;2022-07-23T08:08:59;17.00;99.90
16154;DHT22;8182;55.648;13.208;2022-07-23T08:11:25;17.10;99.90
16154;DHT22;8182;55.648;13.208;2022-07-23T08:13:52;17.30;99.90
16154;DHT22;8182;55.648;13.208;2022-07-23T08:16:21;17.30;99.90
16154;DHT22;8182;55.648;13.208;2022-07-23T08:18:59;17.20;99.90
16154;DHT22;8182;55.648;13.208;2022-07-23T08:21:27;17.30;99.90
16154;DHT22;8182;55.648;13.208;2022-07-23T08:23:57;17.50;99.90
16154;DHT22;8182;55.648;13.208;2022-07-23T08:26:24;17.70;99.90
16154;DHT22;8182;55.648;13.208;2022-07-23T08:28:51;17.90;99.90
16154;DHT22;8182;55.648;13.208;2022-07-23T08:31:18;17.80;99.90
16154;DHT22;8182;55.648;13.208;2022-07-23T08:33:46;17.70;99.90
16154;DHT22;8182;55.648;13.208;2022-07-23T08:36:14;17.70;99.90
16154;DHT22;8182;55.648;13.208;2022-07-23T08:38:41;17.70;99.90
16154;DHT22;8182;55.648;13.208;2022-07-23T08:41:09;17.60;99.90
16154;DHT22;8182;55.648;13.208;2022-07-23T08:43:36;17.50;99.90
16154;DHT22;8182;55.648;13.208;2022-07-23T08:46:04;17.50;99.90
16154;DHT22;8182;55.648;13.208;2022-07-23T08:48:33;17.30;99.90
16154;DHT22;8182;55.648;13.208;2022-07-23T08:51:09;17.20;99.90
16154;DHT22;8182;55.648;13.208;2022-07-23T08:53:36;17.30;99.90
16154;DHT22;8182;55.648;13.208;2022-07-23T08:56:06;17.30;99.90
16154;DHT22;8182;55.648;13.208;2022-07-23T08:58:33;17.20;99.90
16154;DHT22;8182;55.648;13.208;2022-07-23T09:01:01;17.10;99.90
16154;DHT22;8182;55.648;13.208;2022-07-23T09:03:29;17.00;99.90
16154;DHT22;8182;55.648;13.208;2022-07-23T09:05:58;17.00;99.90
16154;DHT22;8182;55.648;13.208;2022-07-23T09:08:34;16.90;99.90
16154;DHT22;8182;55.648;13.208;2022-07-23T09:11:03;16.90;99.90
16154;DHT22;8182;55.648;13.208;2022-07-23T09:13:36;16.90;99.90
16154;DHT22;8182;55.648;13.208;2022-07-23T09:16:07;16.80;99.90
16154;DHT22;8182;55.648;13.208;2022-07-23T09:18:37;16.80;99.90
16154;DHT22;8182;55.648;13.208;2022-07-23T09:21:23;16.70;99.90
16154;DHT22;8182;55.648;13.208;2022-07-23T09:23:56;16.80;99.90
16154;DHT22;8182;55.648;13.208;2022-07-23T09:26:28;16.80;99.90
16154;DHT22;8182;55.648;13.208;2022-07-23T09:29:11;16.80;99.90
16154;DHT22;8182;55.648;13.208;2022-07-23T09:31:47;16.80;99.90
16154;DHT22;8182;55.648;13.208;2022-07-23T09:34:17;16.80;99.90
16154;DHT22;8182;55.648;13.208;2022-07-23T09:36:45;16.90;99.90
16154;DHT22;8182;55.648;13.208;2022-07-23T09:39:16;17.00;99.90
16154;DHT22;8182;55.648;13.208;2022-07-23T09:41:49;17.00;99.90
16154;DHT22;8182;55.648;13.208;2022-07-23T09:44:18;17.00;99.90
16154;DHT22;8182;55.648;13.208;2022-07-23T09:46:46;16.90;99.90
16154;DHT22;8182;55.648;13.208;2022-07-23T09:49:19;17.00;99.90
16154;DHT22;8182;55.648;13.208;2022-07-23T09:51:49;17.10;99.90
16154;DHT22;8182;55.648;13.208;2022-07-23T09:54:32;17.10;99.90
16154;DHT22;8182;55.648;13.208;2022-07-23T09:57:03;17.20;99.90
16154;DHT22;8182;55.648;13.208;2022-07-23T09:59:36;17.40;99.90
16154;DHT22;8182;55.648;13.208;2022-07-23T10:02:04;17.50;99.90
16154;DHT22;8182;55.648;13.208;2022-07-23T10:04:32;17.50;99.90
16154;DHT22;8182;55.648;13.208;2022-07-23T10:07:01;17.50;99.90
16154;DHT22;8182;55.648;13.208;2022-07-23T10:09:32;17.30;99.90
16154;DHT22;8182;55.648;13.208;2022-07-23T10:12:01;17.30;99.90
16154;DHT22;8182;55.648;13.208;2022-07-23T10:14:36;17.20;99.90
16154;DHT22;8182;55.648;13.208;2022-07-23T10:17:03;17.10;99.90
16154;DHT22;8182;55.648;13.208;2022-07-23T10:19:31;17.10;99.90
16154;DHT22;8182;55.648;13.208;2022-07-23T10:22:00;17.10;99.90
16154;DHT22;8182;55.648;13.208;2022-07-23T10:24:45;17.10;99.90
16154;DHT22;8182;55.648;13.208;2022-07-23T10:27:31;17.20;99.90
16154;DHT22;8182;55.648;13.208;2022-07-23T10:30:02;17.20;99.90
16154;DHT22;8182;55.648;13.208;2022-07-23T10:32:39;17.20;99.90
16154;DHT22;8182;55.648;13.208;2022-07-23T10:35:10;17.20;99.90
16154;DHT22;8182;55.648;13.208;2022-07-23T10:37:42;17.30;99.90
16154;DHT22;8182;55.648;13.208;2022-07-23T10:40:16;17.30;99.90
16154;DHT22;8182;55.648;13.208;2022-07-23T10:42:44;17.60;99.90
16154;DHT22;8182;55.648;13.208;2022-07-23T10:45:27;17.50;99.90
16154;DHT22;8182;55.648;13.208;2022-07-23T10:47:55;17.40;99.90
16154;DHT22;8182;55.648;13.208;2022-07-23T10:50:24;17.40;99.90
16154;DHT22;8182;55.648;13.208;2022-07-23T10:53:10;17.30;99.90
16154;DHT22;8182;55.648;13.208;2022-07-23T10:55:48;17.30;99.90
16154;DHT22;8182;55.648;13.208;2022-07-23T10:58:23;17.50;99.90
16154;DHT22;8182;55.648;13.208;2022-07-23T11:01:33;17.40;99.90
16154;DHT22;8182;55.648;13.208;2022-07-23T11:04:00;17.30;99.90
16154;DHT22;8182;55.648;13.208;2022-07-23T11:09:38;17.50;99.90
16154;DHT22;8182;55.648;13.208;2022-07-23T11:12:35;17.50;99.90
16154;DHT22;8182;55.648;13.208;2022-07-23T11:15:07;17.70;99.90
16154;DHT22;8182;55.648;13.208;2022-07-23T11:20:25;18.60;99.90
16154;DHT22;8182;55.648;13.208;2022-07-23T11:22:55;18.50;99.90
16154;DHT22;8182;55.648;13.208;2022-07-23T11:25:32;18.40;99.90
16154;DHT22;8182;55.648;13.208;2022-07-23T11:28:14;18.10;99.90
16154;DHT22;8182;55.648;13.208;2022-07-23T11:30:44;17.90;99.90
16154;DHT22;8182;55.648;13.208;2022-07-23T11:33:21;17.80;99.90
16154;DHT22;8182;55.648;13.208;2022-07-23T11:35:59;17.70;99.90
16154;DHT22;8182;55.648;13.208;2022-07-23T11:38:27;17.70;99.90
16154;DHT22;8182;55.648;13.208;2022-07-23T11:40:57;17.70;99.90
16154;DHT22;8182;55.648;13.208;2022-07-23T11:43:24;17.60;99.90
16154;DHT22;8182;55.648;13.208;2022-07-23T11:45:53;17.50;99.90
16154;DHT22;8182;55.648;13.208;2022-07-23T11:48:24;17.50;99.90
16154;DHT22;8182;55.648;13.208;2022-07-23T11:50:52;17.60;99.90
16154;DHT22;8182;55.648;13.208;2022-07-23T11:53:23;17.60;99.90
16154;DHT22;8182;55.648;13.208;2022-07-23T11:55:51;17.60;99.90
16154;DHT22;8182;55.648;13.208;2022-07-23T11:58:18;17.60;99.90
16154;DHT22;8182;55.648;13.208;2022-07-23T12:00:45;17.50;99.90
16154;DHT22;8182;55.648;13.208;2022-07-23T12:03:12;17.50;99.90
16154;DHT22;8182;55.648;13.208;2022-07-23T12:05:41;17.70;99.90
16154;DHT22;8182;55.648;13.208;2022-07-23T12:08:09;17.70;99.90
16154;DHT22;8182;55.648;13.208;2022-07-23T12:10:39;17.80;99.90
16154;DHT22;8182;55.648;13.208;2022-07-23T12:13:10;17.90;99.90
16154;DHT22;8182;55.648;13.208;2022-07-23T12:15:40;17.90;99.90
16154;DHT22;8182;55.648;13.208;2022-07-23T12:18:09;18.00;99.90
16154;DHT22;8182;55.648;13.208;2022-07-23T12:20:39;17.90;99.90
16154;DHT22;8182;55.648;13.208;2022-07-23T12:23:10;17.80;99.90
16154;DHT22;8182;55.648;13.208;2022-07-23T12:25:39;17.60;99.90
16154;DHT22;8182;55.648;13.208;2022-07-23T12:28:08;17.50;99.90
16154;DHT22;8182;55.648;13.208;2022-07-23T12:30:38;17.60;99.90
16154;DHT22;8182;55.648;13.208;2022-07-23T12:33:08;17.60;99.90
16154;DHT22;8182;55.648;13.208;2022-07-23T12:35:37;17.70;99.90
16154;DHT22;8182;55.648;13.208;2022-07-23T12:38:08;17.90;99.90
16154;DHT22;8182;55.648;13.208;2022-07-23T12:40:42;18.20;99.90
16154;DHT22;8182;55.648;13.208;2022-07-23T12:43:11;18.30;99.90
16154;DHT22;8182;55.648;13.208;2022-07-23T12:45:47;18.40;99.90
16154;DHT22;8182;55.648;13.208;2022-07-23T12:48:19;18.50;99.90
16154;DHT22;8182;55.648;13.208;2022-07-23T12:50:55;18.40;99.90
16154;DHT22;8182;55.648;13.208;2022-07-23T12:53:25;18.40;99.90
16154;DHT22;8182;55.648;13.208;2022-07-23T12:56:02;18.70;99.90
16154;DHT22;8182;55.648;13.208;2022-07-23T12:58:40;18.80;99.90
16154;DHT22;8182;55.648;13.208;2022-07-23T13:01:08;18.60;99.90
16154;DHT22;8182;55.648;13.208;2022-07-23T13:03:38;18.40;99.90
16154;DHT22;8182;55.648;13.208;2022-07-23T13:06:06;18.30;99.90
16154;DHT22;8182;55.648;13.208;2022-07-23T13:08:36;18.10;99.90
16154;DHT22;8182;55.648;13.208;2022-07-23T13:11:04;18.00;99.90
16154;DHT22;8182;55.648;13.208;2022-07-23T13:13:34;17.90;99.90
16154;DHT22;8182;55.648;13.208;2022-07-23T13:16:02;17.70;99.90
16154;DHT22;8182;55.648;13.208;2022-07-23T13:18:29;17.60;99.90
16154;DHT22;8182;55.648;13.208;2022-07-23T13:20:56;17.50;99.90
16154;DHT22;8182;55.648;13.208;2022-07-23T13:23:23;17.50;99.90
16154;DHT22;8182;55.648;13.208;2022-07-23T13:25:52;17.30;99.90
16154;DHT22;8182;55.648;13.208;2022-07-23T13:28:19;17.30;99.90
16154;DHT22;8182;55.648;13.208;2022-07-23T13:30:47;17.20;99.90
16154;DHT22;8182;55.648;13.208;2022-07-23T13:33:16;17.10;99.90
16154;DHT22;8182;55.648;13.208;2022-07-23T13:35:47;16.90;99.90
16154;DHT22;8182;55.648;13.208;2022-07-23T13:38:19;16.90;99.90
16154;DHT22;8182;55.648;13.208;2022-07-23T13:40:49;16.90;99.90
16154;DHT22;8182;55.648;13.208;2022-07-23T13:43:20;17.00;99.90
16154;DHT22;8182;55.648;13.208;2022-07-23T13:45:48;17.00;99.90
16154;DHT22;8182;55.648;13.208;2022-07-23T13:48:16;17.00;99.90
16154;DHT22;8182;55.648;13.208;2022-07-23T13:50:44;17.00;99.90
16154;DHT22;8182;55.648;13.208;2022-07-23T13:53:22;17.00;99.90
16154;DHT22;8182;55.648;13.208;2022-07-23T13:55:51;16.90;99.90
16154;DHT22;8182;55.648;13.208;2022-07-23T13:58:20;16.90;99.90
16154;DHT22;8182;55.648;13.208;2022-07-23T14:00:50;16.80;99.90
16154;DHT22;8182;55.648;13.208;2022-07-23T14:03:18;17.00;99.90
16154;DHT22;8182;55.648;13.208;2022-07-23T14:05:45;17.20;99.90
16154;DHT22;8182;55.648;13.208;2022-07-23T14:08:12;17.20;99.90
16154;DHT22;8182;55.648;13.208;2022-07-23T14:10:39;17.10;99.90
16154;DHT22;8182;55.648;13.208;2022-07-23T14:13:06;17.20;99.90
16154;DHT22;8182;55.648;13.208;2022-07-23T14:15:35;17.20;99.90
16154;DHT22;8182;55.648;13.208;2022-07-23T14:18:04;17.30;99.90
16154;DHT22;8182;55.648;13.208;2022-07-23T14:20:31;17.40;99.90
16154;DHT22;8182;55.648;13.208;2022-07-23T14:22:58;17.40;99.90
16154;DHT22;8182;55.648;13.208;2022-07-23T14:25:28;17.50;99.90
16154;DHT22;8182;55.648;13.208;2022-07-23T14:27:56;17.50;99.90
16154;DHT22;8182;55.648;13.208;2022-07-23T14:30:23;17.40;99.90
16154;DHT22;8182;55.648;13.208;2022-07-23T14:32:51;17.40;99.90
16154;DHT22;8182;55.648;13.208;2022-07-23T14:35:19;17.20;99.90
16154;DHT22;8182;55.648;13.208;2022-07-23T14:37:46;17.20;99.90
16154;DHT22;8182;55.648;13.208;2022-07-23T14:40:14;17.30;99.90
16154;DHT22;8182;55.648;13.208;2022-07-23T14:42:41;17.30;99.90
16154;DHT22;8182;55.648;13.208;2022-07-23T14:45:08;17.20;99.90
16154;DHT22;8182;55.648;13.208;2022-07-23T14:47:35;17.20;99.90
16154;DHT22;8182;55.648;13.208;2022-07-23T14:50:05;17.10;99.90
16154;DHT22;8182;55.648;13.208;2022-07-23T14:52:32;17.00;99.90
16154;DHT22;8182;55.648;13.208;2022-07-23T14:54:59;17.00;99.90
16154;DHT22;8182;55.648;13.208;2022-07-23T14:57:26;17.10;99.90
16154;DHT22;8182;55.648;13.208;2022-07-23T14:59:53;17.00;99.90
16154;DHT22;8182;55.648;13.208;2022-07-23T15:02:20;17.10;99.90
16154;DHT22;8182;55.648;13.208;2022-07-23T15:04:47;17.20;99.90
16154;DHT22;8182;55.648;13.208;2022-07-23T15:07:15;17.10;99.90
16154;DHT22;8182;55.648;13.208;2022-07-23T15:09:42;16.90;99.90
16154;DHT22;8182;55.648;13.208;2022-07-23T15:12:09;16.90;99.90
16154;DHT22;8182;55.648;13.208;2022-07-23T15:14:36;16.80;99.90
16154;DHT22;8182;55.648;13.208;2022-07-23T15:17:03;16.80;99.90
16154;DHT22;8182;55.648;13.208;2022-07-23T15:19:30;16.80;99.90
16154;DHT22;8182;55.648;13.208;2022-07-23T15:21:57;16.80;99.90
16154;DHT22;8182;55.648;13.208;2022-07-23T15:24:27;16.80;99.90
16154;DHT22;8182;55.648;13.208;2022-07-23T15:26:54;16.80;99.90
16154;DHT22;8182;55.648;13.208;2022-07-23T15:29:21;16.80;99.90
16154;DHT22;8182;55.648;13.208;2022-07-23T15:31:48;16.70;99.90
16154;DHT22;8182;55.648;13.208;2022-07-23T15:34:15;16.70;99.90
16154;DHT22;8182;55.648;13.208;2022-07-23T15:36:42;16.60;99.90
16154;DHT22;8182;55.648;13.208;2022-07-23T15:39:09;16.50;99.90
16154;DHT22;8182;55.648;13.208;2022-07-23T15:41:37;16.60;99.90
16154;DHT22;8182;55.648;13.208;2022-07-23T15:44:05;16.60;99.90
16154;DHT22;8182;55.648;13.208;2022-07-23T15:46:31;16.70;99.90